sensor_id;sensor_type;location;lat;lon;timestamp;pressure;altitude;pressure_sealevel;temperature;humidity
23170;BME280;11753;43.144;24.714;2023-08-12T00:00:55;100073.75;;;18.05;98.17
23170;BME280;11753;43.144;24.714;2023-08-12T00:01:55;100079.06;;;18.05;97.84
23170;BME280;11753;43.144;24.714;2023-08-12T00:02:56;100073.88;;;17.97;98.53
23170;BME280;11753;43.144;24.714;2023-08-12T00:03:56;100069.44;;;17.83;99.15
23170;BME280;11753;43.144;24.714;2023-08-12T00:05:02;100073.13;;;17.82;99.41
23170;BME280;11753;43.144;24.714;2023-08-12T00:06:03;100066.50;;;17.78;99.67
23170;BME280;11753;43.144;24.714;2023-08-12T00:07:05;100069.75;;;17.73;99.92
23170;BME280;11753;43.144;24.714;2023-08-12T00:08:05;100068.00;;;17.66;100.00
23170;BME280;11753;43.144;24.714;2023-08-12T00:09:06;100073.31;;;17.66;100.00
23170;BME280;11753;43.144;24.714;2023-08-12T00:10:08;100066.59;;;17.70;100.00
23170;BME280;11753;43.144;24.714;2023-08-12T00:11:08;100072.41;;;17.73;100.00
23170;BME280;11753;43.144;24.714;2023-08-12T00:12:09;100069.38;;;17.76;100.00
23170;BME280;11753;43.144;24.714;2023-08-12T00:13:09;100068.53;;;17.76;100.00
23170;BME280;11753;43.144;24.714;2023-08-12T00:14:09;100068.38;;;17.63;100.00
23170;BME280;11753;43.144;24.714;2023-08-12T00:15:10;100065.47;;;17.57;100.00
23170;BME280;11753;43.144;24.714;2023-08-12T00:16:10;100065.25;;;17.59;100.00
23170;BME280;11753;43.144;24.714;2023-08-12T00:17:11;100061.03;;;17.65;100.00
23170;BME280;11753;43.144;24.714;2023-08-12T00:18:11;100070.00;;;17.64;100.00
23170;BME280;11753;43.144;24.714;2023-08-12T00:19:11;100062.69;;;17.66;100.00
23170;BME280;11753;43.144;24.714;2023-08-12T00:20:12;100068.44;;;17.69;100.00
23170;BME280;11753;43.144;24.714;2023-08-12T00:21:13;100061.56;;;17.75;100.00
23170;BME280;11753;43.144;24.714;2023-08-12T00:22:15;100061.19;;;17.78;99.95
23170;BME280;11753;43.144;24.714;2023-08-12T00:23:15;100059.94;;;17.74;99.92
23170;BME280;11753;43.144;24.714;2023-08-12T00:24:16;100068.44;;;17.69;100.00
23170;BME280;11753;43.144;24.714;2023-08-12T00:25:16;100056.34;;;17.67;100.00
23170;BME280;11753;43.144;24.714;2023-08-12T00:26:17;100065.50;;;17.64;100.00
23170;BME280;11753;43.144;24.714;2023-08-12T00:27:17;100063.13;;;17.69;100.00
23170;BME280;11753;43.144;24.714;2023-08-12T00:28:18;100058.72;;;17.76;100.00
23170;BME280;11753;43.144;24.714;2023-08-12T00:29:18;100057.78;;;17.69;100.00
23170;BME280;11753;43.144;24.714;2023-08-12T00:30:19;100057.34;;;17.66;100.00
23170;BME280;11753;43.144;24.714;2023-08-12T00:31:19;100062.28;;;17.69;100.00
23170;BME280;11753;43.144;24.714;2023-08-12T00:32:19;100058.59;;;17.70;100.00
23170;BME280;11753;43.144;24.714;2023-08-12T00:33:23;100062.78;;;17.72;100.00
23170;BME280;11753;43.144;24.714;2023-08-12T00:34:23;100066.44;;;17.71;100.00
23170;BME280;11753;43.144;24.714;2023-08-12T00:35:23;100069.25;;;17.70;99.91
23170;BME280;11753;43.144;24.714;2023-08-12T00:36:23;100063.31;;;17.68;100.00
23170;BME280;11753;43.144;24.714;2023-08-12T00:37:24;100060.28;;;17.71;100.00
23170;BME280;11753;43.144;24.714;2023-08-12T00:38:24;100060.28;;;17.71;100.00
23170;BME280;11753;43.144;24.714;2023-08-12T00:39:24;100064.22;;;17.75;99.70
23170;BME280;11753;43.144;24.714;2023-08-12T00:40:26;100055.63;;;17.73;99.87
23170;BME280;11753;43.144;24.714;2023-08-12T00:41:26;100064.31;;;17.67;100.00
23170;BME280;11753;43.144;24.714;2023-08-12T00:42:26;100063.31;;;17.68;99.99
23170;BME280;11753;43.144;24.714;2023-08-12T00:43:26;100064.75;;;17.70;99.97
23170;BME280;11753;43.144;24.714;2023-08-12T00:44:27;100062.69;;;17.66;100.00
23170;BME280;11753;43.144;24.714;2023-08-12T00:45:27;100059.34;;;17.64;100.00
23170;BME280;11753;43.144;24.714;2023-08-12T00:46:27;100060.50;;;17.54;100.00
23170;BME280;11753;43.144;24.714;2023-08-12T00:47:28;100053.13;;;17.56;100.00
23170;BME280;11753;43.144;24.714;2023-08-12T00:48:30;100056.13;;;17.47;100.00
23170;BME280;11753;43.144;24.714;2023-08-12T00:49:31;100057.41;;;17.51;100.00
23170;BME280;11753;43.144;24.714;2023-08-12T00:50:32;100059.47;;;17.55;100.00
23170;BME280;11753;43.144;24.714;2023-08-12T00:51:32;100055.44;;;17.59;100.00
23170;BME280;11753;43.144;24.714;2023-08-12T00:52:33;100055.16;;;17.54;100.00
23170;BME280;11753;43.144;24.714;2023-08-12T00:53:36;100057.84;;;17.54;100.00
23170;BME280;11753;43.144;24.714;2023-08-12T00:54:37;100055.63;;;17.58;100.00
23170;BME280;11753;43.144;24.714;2023-08-12T00:55:37;100053.78;;;17.58;100.00
23170;BME280;11753;43.144;24.714;2023-08-12T00:56:38;100056.47;;;17.58;99.83
23170;BME280;11753;43.144;24.714;2023-08-12T00:57:38;100064.59;;;17.57;99.96
23170;BME280;11753;43.144;24.714;2023-08-12T00:58:39;100058.22;;;17.51;100.00
23170;BME280;11753;43.144;24.714;2023-08-12T00:59:40;100053.06;;;17.50;100.00
23170;BME280;11753;43.144;24.714;2023-08-12T01:00:42;100057.22;;;17.52;100.00
23170;BME280;11753;43.144;24.714;2023-08-12T01:01:42;100046.91;;;17.49;100.00
23170;BME280;11753;43.144;24.714;2023-08-12T01:02:44;100050.16;;;17.45;100.00
23170;BME280;11753;43.144;24.714;2023-08-12T01:03:47;100053.44;;;17.47;100.00
23170;BME280;11753;43.144;24.714;2023-08-12T01:04:48;100055.28;;;17.46;100.00
23170;BME280;11753;43.144;24.714;2023-08-12T01:05:48;100055.91;;;17.48;100.00
23170;BME280;11753;43.144;24.714;2023-08-12T01:06:49;100048.59;;;17.50;100.00
23170;BME280;11753;43.144;24.714;2023-08-12T01:07:49;100053.91;;;17.50;100.00
23170;BME280;11753;43.144;24.714;2023-08-12T01:08:49;100060.22;;;17.49;100.00
23170;BME280;11753;43.144;24.714;2023-08-12T01:09:50;100048.84;;;17.55;100.00
23170;BME280;11753;43.144;24.714;2023-08-12T01:10:52;100059.25;;;17.50;100.00
23170;BME280;11753;43.144;24.714;2023-08-12T01:12:03;100062.44;;;17.46;100.00
23170;BME280;11753;43.144;24.714;2023-08-12T01:13:25;100049.34;;;17.44;100.00
23170;BME280;11753;43.144;24.714;2023-08-12T01:15:32;100052.16;;;17.57;99.63
23170;BME280;11753;43.144;24.714;2023-08-12T01:16:35;100055.56;;;17.51;99.83
23170;BME280;11753;43.144;24.714;2023-08-12T01:17:38;100045.28;;;17.48;100.00
23170;BME280;11753;43.144;24.714;2023-08-12T01:18:41;100052.25;;;17.49;99.40
23170;BME280;11753;43.144;24.714;2023-08-12T01:19:43;100045.34;;;17.55;99.38
23170;BME280;11753;43.144;24.714;2023-08-12T01:20:44;100050.47;;;17.56;99.71
23170;BME280;11753;43.144;24.714;2023-08-12T01:21:45;100053.13;;;17.56;99.60
23170;BME280;11753;43.144;24.714;2023-08-12T01:22:46;100049.50;;;17.57;99.60
23170;BME280;11753;43.144;24.714;2023-08-12T01:23:48;100051.13;;;17.58;99.36
23170;BME280;11753;43.144;24.714;2023-08-12T01:24:48;100049.09;;;17.60;99.12
23170;BME280;11753;43.144;24.714;2023-08-12T01:25:49;100042.97;;;17.60;99.12
23170;BME280;11753;43.144;24.714;2023-08-12T01:26:49;100052.16;;;17.57;99.15
23170;BME280;11753;43.144;24.714;2023-08-12T01:27:49;100047.47;;;17.59;98.97
23170;BME280;11753;43.144;24.714;2023-08-12T01:28:49;100056.06;;;17.61;98.85
23170;BME280;11753;43.144;24.714;2023-08-12T01:29:50;100043.59;;;17.62;98.84
23170;BME280;11753;43.144;24.714;2023-08-12T01:30:54;100044.41;;;17.63;98.71
23170;BME280;11753;43.144;24.714;2023-08-12T01:32:19;100040.09;;;17.61;98.69
23170;BME280;11753;43.144;24.714;2023-08-12T01:35:26;100041.88;;;17.54;98.80
23170;BME280;11753;43.144;24.714;2023-08-12T01:36:27;100044.34;;;17.56;99.01
23170;BME280;11753;43.144;24.714;2023-08-12T01:37:29;100046.63;;;17.59;98.68
23170;BME280;11753;43.144;24.714;2023-08-12T01:38:30;100048.28;;;17.60;98.52
23170;BME280;11753;43.144;24.714;2023-08-12T01:39:31;100048.63;;;17.57;98.40
23170;BME280;11753;43.144;24.714;2023-08-12T01:40:32;100048.47;;;17.58;98.25
23170;BME280;11753;43.144;24.714;2023-08-12T01:41:33;100037.56;;;17.53;98.25
23170;BME280;11753;43.144;24.714;2023-08-12T01:42:33;100036.72;;;17.53;98.66
23170;BME280;11753;43.144;24.714;2023-08-12T01:43:34;100041.59;;;17.49;98.63
23170;BME280;11753;43.144;24.714;2023-08-12T01:44:34;100035.44;;;17.49;98.83
23170;BME280;11753;43.144;24.714;2023-08-12T01:45:35;100048.75;;;17.49;98.71
23170;BME280;11753;43.144;24.714;2023-08-12T01:46:35;100043.63;;;17.47;98.87
23170;BME280;11753;43.144;24.714;2023-08-12T01:47:36;100037.47;;;17.47;98.89
23170;BME280;11753;43.144;24.714;2023-08-12T01:48:36;100042.41;;;17.50;98.70
23170;BME280;11753;43.144;24.714;2023-08-12T01:49:37;100041.34;;;17.44;98.71
23170;BME280;11753;43.144;24.714;2023-08-12T01:50:37;100047.03;;;17.41;98.90
23170;BME280;11753;43.144;24.714;2023-08-12T01:51:37;100042.81;;;17.47;98.79
23170;BME280;11753;43.144;24.714;2023-08-12T01:52:38;100041.16;;;17.46;98.55
23170;BME280;11753;43.144;24.714;2023-08-12T01:53:38;100034.63;;;17.48;98.62
23170;BME280;11753;43.144;24.714;2023-08-12T01:54:38;100043.63;;;17.47;98.18
23170;BME280;11753;43.144;24.714;2023-08-12T01:55:39;100043.94;;;17.38;98.37
23170;BME280;11753;43.144;24.714;2023-08-12T01:56:39;100046.41;;;17.39;98.47
23170;BME280;11753;43.144;24.714;2023-08-12T01:57:39;100042.72;;;17.40;98.42
23170;BME280;11753;43.144;24.714;2023-08-12T01:58:40;100043.00;;;17.45;98.29
23170;BME280;11753;43.144;24.714;2023-08-12T01:59:43;100049.16;;;17.46;98.28
23170;BME280;11753;43.144;24.714;2023-08-12T02:00:44;100048.50;;;17.44;98.12
23170;BME280;11753;43.144;24.714;2023-08-12T02:01:44;100048.31;;;17.45;97.92
23170;BME280;11753;43.144;24.714;2023-08-12T02:02:44;100049.81;;;17.33;98.60
23170;BME280;11753;43.144;24.714;2023-08-12T02:03:48;100047.88;;;17.27;98.94
23170;BME280;11753;43.144;24.714;2023-08-12T02:04:48;100043.22;;;17.29;99.18
23170;BME280;11753;43.144;24.714;2023-08-12T02:05:48;100043.22;;;17.29;99.21
23170;BME280;11753;43.144;24.714;2023-08-12T02:06:49;100044.22;;;17.28;99.53
23170;BME280;11753;43.144;24.714;2023-08-12T02:07:49;100045.81;;;17.22;99.96
23170;BME280;11753;43.144;24.714;2023-08-12T02:08:50;100048.19;;;17.17;99.82
23170;BME280;11753;43.144;24.714;2023-08-12T02:09:51;100044.06;;;17.15;99.82
23170;BME280;11753;43.144;24.714;2023-08-12T02:10:51;100045.34;;;17.04;100.00
23170;BME280;11753;43.144;24.714;2023-08-12T02:11:54;100047.19;;;17.03;100.00
23170;BME280;11753;43.144;24.714;2023-08-12T02:12:54;100041.25;;;17.01;100.00
23170;BME280;11753;43.144;24.714;2023-08-12T02:13:55;100042.31;;;17.07;100.00
23170;BME280;11753;43.144;24.714;2023-08-12T02:14:55;100043.50;;;17.04;100.00
23170;BME280;11753;43.144;24.714;2023-08-12T02:15:55;100049.31;;;17.08;100.00
23170;BME280;11753;43.144;24.714;2023-08-12T02:16:56;100053.63;;;17.09;100.00
23170;BME280;11753;43.144;24.714;2023-08-12T02:17:56;100047.19;;;17.03;100.00
23170;BME280;11753;43.144;24.714;2023-08-12T02:18:56;100044.25;;;16.98;100.00
23170;BME280;11753;43.144;24.714;2023-08-12T02:19:57;100041.41;;;17.00;100.00
23170;BME280;11753;43.144;24.714;2023-08-12T02:20:57;100040.97;;;16.96;100.00
23170;BME280;11753;43.144;24.714;2023-08-12T02:21:58;100032.88;;;16.90;100.00
23170;BME280;11753;43.144;24.714;2023-08-12T02:22:58;100043.53;;;16.90;100.00
23170;BME280;11753;43.144;24.714;2023-08-12T02:23:58;100040.22;;;16.88;100.00
23170;BME280;11753;43.144;24.714;2023-08-12T02:24:59;100044.00;;;16.93;100.00
23170;BME280;11753;43.144;24.714;2023-08-12T02:26:00;100046.09;;;16.98;100.00
23170;BME280;11753;43.144;24.714;2023-08-12T02:27:00;100049.31;;;16.93;100.00
23170;BME280;11753;43.144;24.714;2023-08-12T02:28:01;100053.97;;;16.91;100.00
23170;BME280;11753;43.144;24.714;2023-08-12T02:29:01;100043.63;;;16.96;100.00
23170;BME280;11753;43.144;24.714;2023-08-12T02:30:01;100046.56;;;17.01;100.00
23170;BME280;11753;43.144;24.714;2023-08-12T02:31:02;100044.53;;;17.03;100.00
23170;BME280;11753;43.144;24.714;2023-08-12T02:32:02;100050.47;;;17.05;100.00
23170;BME280;11753;43.144;24.714;2023-08-12T02:33:03;100053.97;;;17.06;100.00
23170;BME280;11753;43.144;24.714;2023-08-12T02:34:03;100054.16;;;17.04;100.00
23170;BME280;11753;43.144;24.714;2023-08-12T02:35:04;100058.75;;;17.11;100.00
23170;BME280;11753;43.144;24.714;2023-08-12T02:36:04;100052.13;;;17.06;100.00
23170;BME280;11753;43.144;24.714;2023-08-12T02:37:04;100054.63;;;17.08;100.00
23170;BME280;11753;43.144;24.714;2023-08-12T02:38:05;100060.78;;;17.09;100.00
23170;BME280;11753;43.144;24.714;2023-08-12T02:39:05;100052.94;;;17.07;100.00
23170;BME280;11753;43.144;24.714;2023-08-12T02:40:06;100058.00;;;17.17;100.00
23170;BME280;11753;43.144;24.714;2023-08-12T02:41:06;100054.72;;;17.15;100.00
23170;BME280;11753;43.144;24.714;2023-08-12T02:42:06;100056.53;;;17.14;100.00
23170;BME280;11753;43.144;24.714;2023-08-12T02:43:07;100055.69;;;17.14;100.00
23170;BME280;11753;43.144;24.714;2023-08-12T02:44:12;100058.75;;;17.11;100.00
23170;BME280;11753;43.144;24.714;2023-08-12T02:45:13;100061.59;;;17.09;100.00
23170;BME280;11753;43.144;24.714;2023-08-12T02:46:13;100061.13;;;17.05;100.00
23170;BME280;11753;43.144;24.714;2023-08-12T02:47:15;100065.53;;;16.98;100.00
23170;BME280;11753;43.144;24.714;2023-08-12T02:48:15;100054.88;;;16.98;100.00
23170;BME280;11753;43.144;24.714;2023-08-12T02:49:15;100064.25;;;16.94;100.00
23170;BME280;11753;43.144;24.714;2023-08-12T02:50:16;100057.66;;;16.90;100.00
23170;BME280;11753;43.144;24.714;2023-08-12T02:51:16;100061.41;;;16.96;100.00
23170;BME280;11753;43.144;24.714;2023-08-12T02:52:17;100064.59;;;16.91;100.00
23170;BME280;11753;43.144;24.714;2023-08-12T02:53:17;100061.31;;;16.89;100.00
23170;BME280;11753;43.144;24.714;2023-08-12T02:54:17;100067.94;;;16.93;100.00
23170;BME280;11753;43.144;24.714;2023-08-12T02:55:17;100069.56;;;16.94;100.00
23170;BME280;11753;43.144;24.714;2023-08-12T02:56:18;100065.09;;;16.95;100.00
23170;BME280;11753;43.144;24.714;2023-08-12T02:57:18;100071.84;;;16.97;100.00
23170;BME280;11753;43.144;24.714;2023-08-12T02:58:18;100069.56;;;16.94;100.00
23170;BME280;11753;43.144;24.714;2023-08-12T02:59:19;100073.97;;;16.87;100.00
23170;BME280;11753;43.144;24.714;2023-08-12T03:00:19;100067.25;;;16.91;100.00
23170;BME280;11753;43.144;24.714;2023-08-12T03:01:20;100067.56;;;16.96;100.00
23170;BME280;11753;43.144;24.714;2023-08-12T03:02:21;100072.88;;;16.96;100.00
23170;BME280;11753;43.144;24.714;2023-08-12T03:03:21;100061.22;;;16.97;100.00
23170;BME280;11753;43.144;24.714;2023-08-12T03:04:21;100069.66;;;17.01;100.00
23170;BME280;11753;43.144;24.714;2023-08-12T03:05:22;100068.47;;;17.03;100.00
23170;BME280;11753;43.144;24.714;2023-08-12T03:06:23;100069.19;;;16.97;100.00
23170;BME280;11753;43.144;24.714;2023-08-12T03:07:23;100065.09;;;16.95;100.00
23170;BME280;11753;43.144;24.714;2023-08-12T03:08:26;100069.19;;;16.97;100.00
23170;BME280;11753;43.144;24.714;2023-08-12T03:09:26;100069.84;;;16.99;100.00
23170;BME280;11753;43.144;24.714;2023-08-12T03:10:30;100065.91;;;16.95;100.00
23170;BME280;11753;43.144;24.714;2023-08-12T03:11:30;100070.94;;;16.90;100.00
23170;BME280;11753;43.144;24.714;2023-08-12T03:12:30;100074.91;;;16.94;100.00
23170;BME280;11753;43.144;24.714;2023-08-12T03:13:31;100069.19;;;16.97;100.00
23170;BME280;11753;43.144;24.714;2023-08-12T03:14:31;100065.53;;;16.98;100.00
23170;BME280;11753;43.144;24.714;2023-08-12T03:15:32;100067.56;;;16.96;99.74
23170;BME280;11753;43.144;24.714;2023-08-12T03:16:32;100070.59;;;16.93;99.85
23170;BME280;11753;43.144;24.714;2023-08-12T03:17:32;100068.75;;;16.94;99.99
23170;BME280;11753;43.144;24.714;2023-08-12T03:18:33;100074.91;;;16.94;99.83
23170;BME280;11753;43.144;24.714;2023-08-12T03:19:33;100076.34;;;16.97;99.66
23170;BME280;11753;43.144;24.714;2023-08-12T03:20:33;100071.94;;;16.89;99.89
23170;BME280;11753;43.144;24.714;2023-08-12T03:21:34;100075.97;;;16.85;100.00
23170;BME280;11753;43.144;24.714;2023-08-12T03:22:37;100069.94;;;16.91;99.94
23170;BME280;11753;43.144;24.714;2023-08-12T03:23:40;100070.75;;;16.92;100.00
23170;BME280;11753;43.144;24.714;2023-08-12T03:24:41;100072.78;;;16.90;100.00
23170;BME280;11753;43.144;24.714;2023-08-12T03:25:41;100075.25;;;16.91;100.00
23170;BME280;11753;43.144;24.714;2023-08-12T03:26:41;100070.75;;;16.92;100.00
23170;BME280;11753;43.144;24.714;2023-08-12T03:27:41;100078.19;;;16.96;99.59
23170;BME280;11753;43.144;24.714;2023-08-12T03:28:42;100073.97;;;16.87;99.59
23170;BME280;11753;43.144;24.714;2023-08-12T03:29:42;100067.00;;;16.86;99.80
23170;BME280;11753;43.144;24.714;2023-08-12T03:30:49;100076.63;;;16.87;100.00
23170;BME280;11753;43.144;24.714;2023-08-12T03:31:49;100068.47;;;16.89;99.96
23170;BME280;11753;43.144;24.714;2023-08-12T03:32:51;100073.31;;;16.85;100.00
23170;BME280;11753;43.144;24.714;2023-08-12T03:33:51;100071.94;;;16.89;99.80
23170;BME280;11753;43.144;24.714;2023-08-12T03:34:52;100085.06;;;16.91;99.92
23170;BME280;11753;43.144;24.714;2023-08-12T03:35:52;100076.44;;;16.89;99.84
23170;BME280;11753;43.144;24.714;2023-08-12T03:36:52;100080.94;;;16.88;99.92
23170;BME280;11753;43.144;24.714;2023-08-12T03:37:56;100081.75;;;16.89;99.86
23170;BME280;11753;43.144;24.714;2023-08-12T03:38:56;100075.25;;;16.91;99.57
23170;BME280;11753;43.144;24.714;2023-08-12T03:39:56;100080.56;;;16.91;99.29
23170;BME280;11753;43.144;24.714;2023-08-12T03:40:57;100078.09;;;16.90;99.55
23170;BME280;11753;43.144;24.714;2023-08-12T03:41:57;100077.72;;;16.93;99.57
23170;BME280;11753;43.144;24.714;2023-08-12T03:42:57;100085.16;;;16.97;99.22
23170;BME280;11753;43.144;24.714;2023-08-12T03:43:58;100084.63;;;17.02;98.90
23170;BME280;11753;43.144;24.714;2023-08-12T03:44:58;100083.41;;;17.04;98.55
23170;BME280;11753;43.144;24.714;2023-08-12T03:45:58;100083.50;;;16.96;98.64
23170;BME280;11753;43.144;24.714;2023-08-12T03:47:02;100083.13;;;16.99;98.76
23170;BME280;11753;43.144;24.714;2023-08-12T03:48:05;100084.03;;;17.06;98.52
23170;BME280;11753;43.144;24.714;2023-08-12T03:49:08;100092.41;;;17.03;98.32
23170;BME280;11753;43.144;24.714;2023-08-12T03:50:08;100092.13;;;16.98;98.47
23170;BME280;11753;43.144;24.714;2023-08-12T03:51:09;100081.47;;;16.98;98.57
23170;BME280;11753;43.144;24.714;2023-08-12T03:52:09;100088.09;;;17.02;98.39
23170;BME280;11753;43.144;24.714;2023-08-12T03:53:09;100092.50;;;16.95;98.72
23170;BME280;11753;43.144;24.714;2023-08-12T03:54:10;100098.81;;;16.94;98.86
23170;BME280;11753;43.144;24.714;2023-08-12T03:55:10;100096.16;;;16.94;98.55
23170;BME280;11753;43.144;24.714;2023-08-12T03:56:10;100089.09;;;17.01;98.64
23170;BME280;11753;43.144;24.714;2023-08-12T03:57:15;100099.84;;;17.08;98.45
23170;BME280;11753;43.144;24.714;2023-08-12T03:58:15;100098.34;;;17.05;98.55
23170;BME280;11753;43.144;24.714;2023-08-12T03:59:16;100097.34;;;17.06;98.25
23170;BME280;11753;43.144;24.714;2023-08-12T04:00:17;100098.00;;;17.09;98.08
23170;BME280;11753;43.144;24.714;2023-08-12T04:01:17;100102.13;;;17.11;98.05
23170;BME280;11753;43.144;24.714;2023-08-12T04:02:18;100091.28;;;17.13;97.76
23170;BME280;11753;43.144;24.714;2023-08-12T04:03:18;100101.59;;;17.16;97.80
23170;BME280;11753;43.144;24.714;2023-08-12T04:04:18;100090.94;;;17.16;97.51
23170;BME280;11753;43.144;24.714;2023-08-12T04:05:18;100098.00;;;17.09;97.63
23170;BME280;11753;43.144;24.714;2023-08-12T04:06:19;100093.22;;;17.04;98.26
23170;BME280;11753;43.144;24.714;2023-08-12T04:07:19;100106.63;;;17.11;98.06
23170;BME280;11753;43.144;24.714;2023-08-12T04:08:23;100099.06;;;17.14;97.95
23170;BME280;11753;43.144;24.714;2023-08-12T04:09:24;100103.84;;;17.19;97.79
23170;BME280;11753;43.144;24.714;2023-08-12T04:10:24;100099.28;;;17.13;97.64
23170;BME280;11753;43.144;24.714;2023-08-12T04:11:25;100101.31;;;17.11;97.62
23170;BME280;11753;43.144;24.714;2023-08-12T04:12:28;100095.25;;;17.17;97.68
23170;BME280;11753;43.144;24.714;2023-08-12T04:13:28;100108.84;;;17.22;97.45
23170;BME280;11753;43.144;24.714;2023-08-12T04:14:31;100101.47;;;17.24;96.82
23170;BME280;11753;43.144;24.714;2023-08-12T04:15:32;100101.09;;;17.27;96.58
23170;BME280;11753;43.144;24.714;2023-08-12T04:16:32;100107.72;;;17.31;96.59
23170;BME280;11753;43.144;24.714;2023-08-12T04:17:32;100105.69;;;17.33;96.33
23170;BME280;11753;43.144;24.714;2023-08-12T04:18:33;100108.63;;;17.38;96.15
23170;BME280;11753;43.144;24.714;2023-08-12T04:19:33;100104.75;;;17.41;95.94
23170;BME280;11753;43.144;24.714;2023-08-12T04:20:33;100106.59;;;17.40;95.84
23170;BME280;11753;43.144;24.714;2023-08-12T04:21:34;100111.56;;;17.43;95.71
23170;BME280;11753;43.144;24.714;2023-08-12T04:22:34;100108.78;;;17.51;95.43
23170;BME280;11753;43.144;24.714;2023-08-12T04:23:35;100107.03;;;17.58;95.06
23170;BME280;11753;43.144;24.714;2023-08-12T04:24:35;100106.84;;;17.60;94.00
23170;BME280;11753;43.144;24.714;2023-08-12T04:25:36;100110.06;;;17.55;94.13
23170;BME280;11753;43.144;24.714;2023-08-12T04:26:36;100115.03;;;17.58;94.44
23170;BME280;11753;43.144;24.714;2023-08-12T04:27:36;100108.97;;;17.65;94.47
23170;BME280;11753;43.144;24.714;2023-08-12T04:28:37;100113.06;;;17.67;93.86
23170;BME280;11753;43.144;24.714;2023-08-12T04:29:38;100111.34;;;17.59;94.04
23170;BME280;11753;43.144;24.714;2023-08-12T04:30:42;100110.59;;;17.66;94.21
23170;BME280;11753;43.144;24.714;2023-08-12T04:31:42;100108.22;;;17.71;93.96
23170;BME280;11753;43.144;24.714;2023-08-12T04:32:43;100107.09;;;17.80;93.54
23170;BME280;11753;43.144;24.714;2023-08-12T04:33:43;100106.63;;;17.76;93.04
23170;BME280;11753;43.144;24.714;2023-08-12T04:34:44;100097.72;;;17.84;92.96
23170;BME280;11753;43.144;24.714;2023-08-12T04:35:44;100108.81;;;17.87;92.93
23170;BME280;11753;43.144;24.714;2023-08-12T04:36:47;100097.78;;;17.91;92.76
23170;BME280;11753;43.144;24.714;2023-08-12T04:37:47;100102.16;;;17.98;92.77
23170;BME280;11753;43.144;24.714;2023-08-12T04:38:51;100101.22;;;18.06;92.22
23170;BME280;11753;43.144;24.714;2023-08-12T04:39:51;100106.72;;;18.04;91.49
23170;BME280;11753;43.144;24.714;2023-08-12T04:40:54;100105.22;;;17.95;91.78
23170;BME280;11753;43.144;24.714;2023-08-12T04:41:55;100102.97;;;17.99;91.72
23170;BME280;11753;43.144;24.714;2023-08-12T04:42:55;100102.44;;;18.03;91.85
23170;BME280;11753;43.144;24.714;2023-08-12T04:43:55;100104.34;;;18.09;91.87
23170;BME280;11753;43.144;24.714;2023-08-12T04:44:56;100103.75;;;18.14;91.49
23170;BME280;11753;43.144;24.714;2023-08-12T04:45:56;100109.59;;;18.24;91.38
23170;BME280;11753;43.144;24.714;2023-08-12T04:46:57;100111.66;;;18.29;91.15
23170;BME280;11753;43.144;24.714;2023-08-12T04:47:57;100112.06;;;18.26;90.64
23170;BME280;11753;43.144;24.714;2023-08-12T04:48:57;100112.75;;;18.34;90.32
23170;BME280;11753;43.144;24.714;2023-08-12T04:49:58;100108.50;;;18.40;90.18
23170;BME280;11753;43.144;24.714;2023-08-12T04:50:58;100112.03;;;18.47;89.75
23170;BME280;11753;43.144;24.714;2023-08-12T04:52:03;100102.00;;;18.49;89.80
23170;BME280;11753;43.144;24.714;2023-08-12T04:53:03;100102.41;;;18.46;89.49
23170;BME280;11753;43.144;24.714;2023-08-12T04:54:12;100105.69;;;18.48;89.30
23170;BME280;11753;43.144;24.714;2023-08-12T04:55:12;100099.19;;;18.57;89.19
23170;BME280;11753;43.144;24.714;2023-08-12T04:56:13;100106.38;;;18.57;88.70
23170;BME280;11753;43.144;24.714;2023-08-12T04:57:13;100101.38;;;18.68;88.72
23170;BME280;11753;43.144;24.714;2023-08-12T04:58:14;100102.00;;;18.70;87.99
23170;BME280;11753;43.144;24.714;2023-08-12T04:59:15;100101.41;;;18.75;87.47
23170;BME280;11753;43.144;24.714;2023-08-12T05:00:15;100108.84;;;18.80;87.27
23170;BME280;11753;43.144;24.714;2023-08-12T05:01:21;100105.38;;;18.86;87.05
23170;BME280;11753;43.144;24.714;2023-08-12T05:02:21;100107.66;;;18.89;86.60
23170;BME280;11753;43.144;24.714;2023-08-12T05:03:22;100109.31;;;18.90;86.55
23170;BME280;11753;43.144;24.714;2023-08-12T05:04:22;100103.56;;;18.93;86.52
23170;BME280;11753;43.144;24.714;2023-08-12T05:05:22;100104.44;;;19.00;86.26
23170;BME280;11753;43.144;24.714;2023-08-12T05:06:23;100112.88;;;19.04;85.89
23170;BME280;11753;43.144;24.714;2023-08-12T05:07:24;100111.09;;;19.11;85.82
23170;BME280;11753;43.144;24.714;2023-08-12T05:08:24;100103.28;;;19.09;85.32
23170;BME280;11753;43.144;24.714;2023-08-12T05:09:25;100102.88;;;19.12;84.99
23170;BME280;11753;43.144;24.714;2023-08-12T05:10:25;100105.75;;;19.11;84.73
23170;BME280;11753;43.144;24.714;2023-08-12T05:11:25;100102.88;;;19.12;85.08
23170;BME280;11753;43.144;24.714;2023-08-12T05:12:26;100106.19;;;19.21;84.62
23170;BME280;11753;43.144;24.714;2023-08-12T05:13:26;100101.53;;;19.30;84.69
23170;BME280;11753;43.144;24.714;2023-08-12T05:14:28;100101.75;;;19.35;84.06
23170;BME280;11753;43.144;24.714;2023-08-12T05:15:28;100106.72;;;19.38;83.62
23170;BME280;11753;43.144;24.714;2023-08-12T05:16:28;100106.06;;;19.36;83.75